createdAt,value
2022-09-14T00:00:10.273Z,100378.84
2022-09-14T00:03:12.841Z,100378.31
2022-09-14T00:06:17.405Z,100379.47
2022-09-14T00:09:22.601Z,100378.09
2022-09-14T00:12:25.176Z,100372.44
2022-09-14T00:15:27.724Z,100363.44
2022-09-14T00:18:30.419Z,100367.94
2022-09-14T00:21:35.013Z,100357.25
2022-09-14T00:24:37.493Z,100361.09
2022-09-14T00:27:40.018Z,100349.22
2022-09-14T00:30:43.134Z,100353.59
2022-09-14T00:33:47.510Z,100334.88
2022-09-14T00:36:52.763Z,100332.50
2022-09-14T00:39:55.262Z,100322.34
2022-09-14T00:42:57.773Z,100323.53
2022-09-14T00:46:02.211Z,100322.25
2022-09-14T00:49:09.199Z,100308.25
2022-09-14T00:52:17.182Z,100305.44
2022-09-14T00:55:23.311Z,100301.78
2022-09-14T00:58:25.910Z,100297.75
2022-09-14T01:01:29.235Z,100292.41
2022-09-14T01:04:32.362Z,100289.00
2022-09-14T01:07:50.395Z,100291.53
2022-09-14T01:11:11.108Z,100288.84
2022-09-14T01:14:21.531Z,100299.19
2022-09-14T01:17:31.452Z,100293.44
2022-09-14T01:20:38.623Z,100307.75
2022-09-14T01:23:50.343Z,100303.06
2022-09-14T01:27:11.840Z,100307.75
2022-09-14T01:30:21.552Z,100309.03
2022-09-14T01:33:31.197Z,100312.44
2022-09-14T01:36:37.631Z,100310.97
2022-09-14T01:39:44.225Z,100304.75
2022-09-14T01:42:52.790Z,100311.81
2022-09-14T01:46:00.916Z,100313.50
2022-09-14T01:49:11.033Z,100313.81
2022-09-14T01:52:17.698Z,100306.34
2022-09-14T01:55:28.168Z,100301.53
2022-09-14T01:58:37.996Z,100310.28
2022-09-14T02:01:50.668Z,100310.09
2022-09-14T02:04:59.842Z,100309.53
2022-09-14T02:08:02.732Z,100309.31
2022-09-14T02:11:05.310Z,100316.91
2022-09-14T02:14:09.554Z,100321.16
2022-09-14T02:17:12.101Z,100313.22
2022-09-14T02:20:20.217Z,100305.97
2022-09-14T02:23:23.198Z,100300.00
2022-09-14T02:26:25.999Z,100306.75
2022-09-14T02:29:30.164Z,100304.25
2022-09-14T02:32:40.391Z,100299.16
2022-09-14T02:35:50.036Z,100291.41
2022-09-14T02:38:59.729Z,100295.50
2022-09-14T02:42:13.419Z,100291.31
2022-09-14T02:45:26.301Z,100302.13
2022-09-14T02:48:36.070Z,100293.38
2022-09-14T02:51:46.752Z,100297.94
2022-09-14T02:54:57.758Z,100297.88
2022-09-14T02:58:01.973Z,100291.16
2022-09-14T03:01:07.403Z,100291.94
2022-09-14T03:04:09.968Z,100288.16
2022-09-14T03:07:12.445Z,100285.81
2022-09-14T03:10:15.266Z,100288.88
2022-09-14T03:13:18.169Z,100290.75
2022-09-14T03:16:22.020Z,100292.47
2022-09-14T03:19:24.603Z,100292.88
2022-09-14T03:22:27.115Z,100284.88
2022-09-14T03:25:30.102Z,100280.22
2022-09-14T03:28:32.594Z,100283.00
2022-09-14T03:31:36.451Z,100278.69
2022-09-14T03:34:39.425Z,100267.63
2022-09-14T03:37:43.274Z,100267.81
2022-09-14T03:40:46.013Z,100256.69
2022-09-14T03:44:00.032Z,100260.91
2022-09-14T03:47:03.961Z,100250.03
2022-09-14T03:50:07.648Z,100255.47
2022-09-14T03:53:10.369Z,100253.44
2022-09-14T03:56:15.548Z,100256.13
2022-09-14T03:59:18.038Z,100253.97
2022-09-14T04:02:21.949Z,100246.31
2022-09-14T04:05:24.419Z,100242.00
2022-09-14T04:08:27.633Z,100234.78
2022-09-14T04:11:31.466Z,100225.13
2022-09-14T04:14:33.984Z,100229.69
2022-09-14T04:17:37.826Z,100234.19
2022-09-14T04:20:40.319Z,100232.78
2022-09-14T04:24:10.152Z,100242.28
2022-09-14T04:27:05.448Z,100251.25
2022-09-14T04:30:08.713Z,100248.69
2022-09-14T04:33:12.556Z,100253.88
2022-09-14T04:36:16.771Z,100248.03
2022-09-14T04:39:20.029Z,100259.56
2022-09-14T04:42:22.506Z,100265.59
2022-09-14T04:45:25.157Z,100267.72
2022-09-14T04:48:33.454Z,100268.09
2022-09-14T04:51:37.253Z,100269.03
2022-09-14T04:54:40.055Z,100267.84
2022-09-14T04:57:42.552Z,100257.28
2022-09-14T05:00:46.263Z,100260.25
2022-09-14T05:03:50.651Z,100248.78
2022-09-14T05:06:53.128Z,100238.22
2022-09-14T05:09:55.682Z,100235.84
2022-09-14T05:12:58.182Z,100232.28
2022-09-14T05:16:07.117Z,100233.94
2022-09-14T05:19:14.622Z,100235.59
2022-09-14T05:22:17.375Z,100234.22
2022-09-14T05:25:19.853Z,100232.09
2022-09-14T05:28:22.327Z,100239.06
2022-09-14T05:31:26.647Z,100239.28
2022-09-14T05:34:30.570Z,100239.16
2022-09-14T05:37:33.055Z,100241.41
2022-09-14T05:40:35.537Z,100230.44
2022-09-14T05:43:38.319Z,100243.50
2022-09-14T05:46:40.937Z,100245.47
2022-09-14T05:49:44.831Z,100243.72
2022-09-14T05:52:48.785Z,100245.22
2022-09-14T05:56:00.312Z,100245.41
2022-09-14T05:59:02.811Z,100253.38
2022-09-14T06:02:05.601Z,100256.53
2022-09-14T06:05:10.123Z,100252.75
2022-09-14T06:08:12.679Z,100255.75
2022-09-14T06:11:17.962Z,100239.88
2022-09-14T06:14:21.259Z,100244.88
2022-09-14T06:17:23.850Z,100241.25
2022-09-14T06:20:27.861Z,100235.78
2022-09-14T06:23:31.812Z,100246.59
2022-09-14T06:26:34.390Z,100244.25
2022-09-14T06:29:37.024Z,100248.03
2022-09-14T06:32:39.557Z,100246.59
2022-09-14T06:35:46.229Z,100242.63
2022-09-14T06:38:50.208Z,100244.69
2022-09-14T06:41:52.885Z,100247.91
2022-09-14T06:44:55.462Z,100238.28
2022-09-14T06:47:58.199Z,100239.13
2022-09-14T06:51:02.281Z,100230.75
2022-09-14T06:54:06.113Z,100229.91
2022-09-14T06:57:08.601Z,100236.94
2022-09-14T07:00:12.161Z,100233.78
2022-09-14T07:03:14.677Z,100230.91
2022-09-14T07:06:20.954Z,100230.38
2022-09-14T07:09:23.474Z,100238.13
2022-09-14T07:12:25.946Z,100238.81
2022-09-14T07:15:28.428Z,100242.75
2022-09-14T07:18:32.680Z,100233.59
2022-09-14T07:21:36.726Z,100246.22
2022-09-14T07:24:39.181Z,100238.25
2022-09-14T07:27:41.673Z,100242.13
2022-09-14T07:30:44.190Z,100238.81
2022-09-14T07:33:47.458Z,100242.28
2022-09-14T07:36:51.279Z,100240.72
2022-09-14T07:39:54.150Z,100245.81
2022-09-14T07:42:57.698Z,100253.41
2022-09-14T07:46:03.301Z,100253.56
2022-09-14T07:49:06.709Z,100249.03
2022-09-14T07:52:11.218Z,100255.69
2022-09-14T07:55:13.894Z,100258.13
2022-09-14T07:58:16.412Z,100258.22
2022-09-14T08:01:19.144Z,100262.09
2022-09-14T08:04:21.873Z,100252.69
2022-09-14T08:07:25.787Z,100249.78
2022-09-14T08:10:28.495Z,100248.84
2022-09-14T08:13:30.974Z,100237.22
2022-09-14T08:16:35.384Z,100232.06
2022-09-14T08:19:38.306Z,100229.63
2022-09-14T08:22:42.673Z,100224.38
2022-09-14T08:25:45.310Z,100235.41
2022-09-14T08:28:48.821Z,100230.78
2022-09-14T08:31:52.013Z,100233.47
2022-09-14T08:34:54.657Z,100238.09
2022-09-14T08:37:59.525Z,100234.50
2022-09-14T08:41:12.298Z,100223.78
2022-09-14T08:44:19.065Z,100212.47
2022-09-14T08:47:27.934Z,100210.66
2022-09-14T08:50:34.739Z,100218.53
2022-09-14T08:53:42.408Z,100215.66
2022-09-14T08:56:48.011Z,100219.63
2022-09-14T08:59:56.467Z,100223.66
2022-09-14T09:03:34.974Z,100209.66
2022-09-14T09:06:45.176Z,100206.06
2022-09-14T09:09:50.832Z,100199.91
2022-09-14T09:12:57.402Z,100201.47
2022-09-14T09:16:03.801Z,100208.78
2022-09-14T09:19:11.972Z,100205.41
2022-09-14T09:22:18.144Z,100198.97
2022-09-14T09:25:26.702Z,100199.44
2022-09-14T09:28:30.512Z,100188.59
2022-09-14T09:31:35.771Z,100193.63
2022-09-14T09:34:38.348Z,100175.34
2022-09-14T09:37:41.243Z,100178.56
2022-09-14T09:40:48.248Z,100179.31
2022-09-14T09:44:10.456Z,100168.06
2022-09-14T09:47:12.995Z,100169.31
2022-09-14T09:50:20.026Z,100162.38
2022-09-14T09:53:24.388Z,100155.91
2022-09-14T09:56:29.888Z,100151.25
2022-09-14T09:59:36.330Z,100146.88
2022-09-14T10:02:38.930Z,100149.25
2022-09-14T10:05:41.508Z,100148.38
2022-09-14T10:08:46.505Z,100143.94
2022-09-14T10:11:58.919Z,100138.81
2022-09-14T10:15:14.474Z,100147.00
2022-09-14T10:18:18.878Z,100157.00
2022-09-14T10:21:22.423Z,100154.16
2022-09-14T10:24:24.906Z,100154.75
2022-09-14T10:27:39.607Z,100150.53
2022-09-14T10:30:49.203Z,100162.91
2022-09-14T10:33:55.850Z,100153.66
2022-09-14T10:37:12.492Z,100142.16
2022-09-14T10:40:19.555Z,100141.00
2022-09-14T10:43:35.174Z,100129.94
2022-09-14T10:46:49.418Z,100142.88
2022-09-14T10:50:04.371Z,100145.53
2022-09-14T10:53:20.998Z,100150.88
2022-09-14T10:56:28.369Z,100151.28
2022-09-14T10:59:40.314Z,100142.34
2022-09-14T11:02:58.459Z,100140.94
2022-09-14T11:06:12.373Z,100136.00
2022-09-14T11:09:22.661Z,100141.47
2022-09-14T11:12:34.616Z,100142.13
2022-09-14T11:15:45.383Z,100158.16
2022-09-14T11:18:58.323Z,100160.50
2022-09-14T11:22:07.404Z,100162.22
2022-09-14T11:25:15.512Z,100154.47
2022-09-14T11:28:22.473Z,100151.38
2022-09-14T11:31:30.887Z,100146.06
2022-09-14T11:34:39.047Z,100147.03
2022-09-14T11:37:46.548Z,100147.69
2022-09-14T11:40:55.453Z,100147.78
2022-09-14T11:44:01.937Z,100148.84
2022-09-14T11:47:10.566Z,100154.72
2022-09-14T11:50:19.636Z,100146.84
2022-09-14T11:53:25.715Z,100141.78
2022-09-14T11:56:30.704Z,100136.06
2022-09-14T11:59:37.444Z,100124.88
2022-09-14T12:03:00.395Z,100131.00
2022-09-14T12:06:47.910Z,100126.56
2022-09-14T12:09:55.054Z,100131.53
2022-09-14T12:12:59.557Z,100133.72
2022-09-14T12:16:04.425Z,100128.91
2022-09-14T12:19:18.734Z,100128.31
2022-09-14T12:22:30.582Z,100129.78
2022-09-14T12:25:33.367Z,100128.84
2022-09-14T12:28:47.894Z,100132.75
2022-09-14T12:32:03.131Z,100127.59
2022-09-14T12:35:44.420Z,100136.38
2022-09-14T12:39:21.010Z,100147.91
2022-09-14T12:42:29.844Z,100143.69
2022-09-14T12:45:53.167Z,100146.59
2022-09-14T12:48:58.741Z,100145.22
2022-09-14T12:52:15.328Z,100138.56
2022-09-14T12:55:32.397Z,100142.72
2022-09-14T12:59:04.007Z,100131.81
2022-09-14T13:02:34.847Z,100135.41
2022-09-14T13:05:37.881Z,100134.50
2022-09-14T13:08:45.934Z,100133.56
2022-09-14T13:11:54.401Z,100120.28
2022-09-14T13:15:01.435Z,100120.69
2022-09-14T13:18:06.619Z,100112.50
2022-09-14T13:21:20.016Z,100115.22
2022-09-14T13:24:32.505Z,100111.25
2022-09-14T13:27:38.070Z,100108.38
2022-09-14T13:30:41.778Z,100104.31
2022-09-14T13:33:53.429Z,100105.44
2022-09-14T13:36:57.809Z,100089.00
2022-09-14T13:40:01.828Z,100096.91
2022-09-14T13:43:04.864Z,100100.88
2022-09-14T13:46:08.605Z,100094.53
2022-09-14T13:49:13.661Z,100090.94
2022-09-14T13:52:43.183Z,100083.00
2022-09-14T13:55:51.725Z,100087.13
2022-09-14T13:59:16.280Z,100079.38
2022-09-14T14:02:18.834Z,100086.84
2022-09-14T14:05:24.413Z,100083.44
2022-09-14T14:08:31.349Z,100078.03
2022-09-14T14:11:37.793Z,100077.56
2022-09-14T14:14:40.630Z,100082.25
2022-09-14T14:17:43.411Z,100077.41
2022-09-14T14:20:45.993Z,100071.75
2022-09-14T14:24:11.750Z,100060.34
2022-09-14T14:27:28.808Z,100059.56
2022-09-14T14:30:33.922Z,100056.19
2022-09-14T14:33:37.359Z,100045.75
2022-09-14T14:36:39.848Z,100047.66
2022-09-14T14:39:48.958Z,100044.53
2022-09-14T14:42:54.258Z,100043.59
2022-09-14T14:45:58.924Z,100045.94
2022-09-14T14:49:01.441Z,100042.16
2022-09-14T14:52:04.289Z,100031.84
2022-09-14T14:55:08.606Z,100032.31
2022-09-14T14:58:16.995Z,100032.16
2022-09-14T15:01:19.481Z,100031.84
2022-09-14T15:04:22.506Z,100023.81
2022-09-14T15:07:25.074Z,100016.03
2022-09-14T15:10:30.538Z,100012.06
2022-09-14T15:13:34.359Z,100008.84
2022-09-14T15:16:36.940Z,100016.91
2022-09-14T15:19:39.518Z,100016.69
2022-09-14T15:22:42.285Z,100008.78
2022-09-14T15:25:44.802Z,100003.88
2022-09-14T15:28:49.500Z,99996.97
2022-09-14T15:31:52.073Z,99995.06
2022-09-14T15:34:54.672Z,100000.88
2022-09-14T15:37:57.400Z,100001.59
2022-09-14T15:41:00.013Z,99996.22
2022-09-14T15:44:04.677Z,99999.03
2022-09-14T15:47:07.395Z,99999.66
2022-09-14T15:50:11.202Z,99997.41
2022-09-14T15:53:14.534Z,99997.09
2022-09-14T15:56:17.288Z,99999.94
2022-09-14T15:59:22.138Z,100000.22
2022-09-14T16:02:27.369Z,100011.53
2022-09-14T16:05:30.034Z,100007.25
2022-09-14T16:08:32.504Z,100005.13
2022-09-14T16:11:36.325Z,100002.38
2022-09-14T16:14:40.229Z,100006.50
2022-09-14T16:17:42.718Z,99997.88
2022-09-14T16:20:45.223Z,100004.09
2022-09-14T16:23:49.979Z,100005.50
2022-09-14T16:26:53.174Z,100007.47
2022-09-14T16:29:57.007Z,99998.69
2022-09-14T16:33:01.714Z,99999.53
2022-09-14T16:36:07.773Z,99991.56
2022-09-14T16:39:14.598Z,99993.00
2022-09-14T16:42:17.081Z,99984.50
2022-09-14T16:45:21.018Z,99985.28
2022-09-14T16:48:23.597Z,99982.50
2022-09-14T16:51:28.039Z,99981.19
2022-09-14T16:54:31.758Z,99984.16
2022-09-14T16:57:37.284Z,99988.00
2022-09-14T17:00:44.126Z,99987.97
2022-09-14T17:03:48.846Z,99988.88
2022-09-14T17:06:52.292Z,99984.72
2022-09-14T17:09:54.815Z,99980.97
2022-09-14T17:12:57.371Z,99983.06
2022-09-14T17:16:05.983Z,99990.06
2022-09-14T17:19:08.593Z,99993.66
2022-09-14T17:22:11.350Z,99988.25
2022-09-14T17:25:16.831Z,99993.88
2022-09-14T17:28:22.038Z,100008.19
2022-09-14T17:31:28.182Z,100001.25
2022-09-14T17:34:30.725Z,100001.78
2022-09-14T17:37:33.233Z,100004.50
2022-09-14T17:40:35.803Z,100004.75
2022-09-14T17:43:39.765Z,100004.22
2022-09-14T17:46:52.060Z,100014.97
2022-09-14T17:49:55.341Z,100010.25
2022-09-14T17:52:57.867Z,100007.56
2022-09-14T17:56:04.410Z,100010.84
2022-09-14T17:59:11.140Z,100014.16
2022-09-14T18:02:14.965Z,100018.44
2022-09-14T18:05:17.461Z,100016.41
2022-09-14T18:08:20.027Z,100020.44
2022-09-14T18:11:23.617Z,100012.03
2022-09-14T18:14:26.614Z,100014.31
2022-09-14T18:17:30.683Z,100015.78
2022-09-14T18:20:33.247Z,100013.25
2022-09-14T18:23:36.557Z,100014.81
2022-09-14T18:26:39.134Z,100009.72
2022-09-14T18:29:41.619Z,100012.41
2022-09-14T18:32:46.223Z,100012.41
2022-09-14T18:35:48.720Z,100011.31
2022-09-14T18:38:52.956Z,100011.56
2022-09-14T18:41:56.214Z,100005.34
2022-09-14T18:44:58.715Z,100008.63
2022-09-14T18:48:02.838Z,100010.09
2022-09-14T18:51:05.910Z,100007.41
2022-09-14T18:54:09.097Z,100002.56
2022-09-14T18:57:11.643Z,100005.09
2022-09-14T19:00:18.519Z,100009.03
2022-09-14T19:03:22.672Z,100005.97
2022-09-14T19:06:25.211Z,100003.66
2022-09-14T19:09:27.714Z,100002.28
2022-09-14T19:12:30.221Z,100001.19
2022-09-14T19:15:34.383Z,99997.06
2022-09-14T19:18:38.439Z,100001.16
2022-09-14T19:21:41.086Z,99993.63
2022-09-14T19:24:43.662Z,99997.50
2022-09-14T19:27:46.166Z,99998.13
2022-09-14T19:30:49.995Z,100006.91
2022-09-14T19:33:54.717Z,100001.63
2022-09-14T19:36:57.275Z,100005.16
2022-09-14T19:39:59.898Z,100012.72
2022-09-14T19:43:02.490Z,100012.69
2022-09-14T19:46:06.219Z,100002.84
2022-09-14T19:49:14.817Z,100003.06
2022-09-14T19:52:17.316Z,99992.69
2022-09-14T19:55:20.493Z,99997.78
2022-09-14T19:58:23.176Z,99993.28
2022-09-14T20:01:27.334Z,99996.13
2022-09-14T20:04:31.201Z,99994.91
2022-09-14T20:07:33.704Z,99989.56
2022-09-14T20:10:36.637Z,99995.50
2022-09-14T20:13:39.776Z,99989.66
2022-09-14T20:16:44.885Z,99998.50
2022-09-14T20:19:48.816Z,99993.88
2022-09-14T20:22:51.692Z,100002.78
2022-09-14T20:25:54.219Z,99998.09
2022-09-14T20:28:57.765Z,100001.47
2022-09-14T20:32:00.503Z,99999.47
2022-09-14T20:35:04.592Z,100004.81
2022-09-14T20:38:07.078Z,99996.06
2022-09-14T20:41:10.643Z,99994.56
2022-09-14T20:44:13.724Z,100003.09
2022-09-14T20:47:16.195Z,99997.97
2022-09-14T20:50:20.025Z,99993.38
2022-09-14T20:53:22.560Z,99998.22
2022-09-14T20:56:26.644Z,100002.06
2022-09-14T20:59:30.363Z,100001.91
2022-09-14T21:02:32.970Z,100004.34
2022-09-14T21:05:36.841Z,99998.34
2022-09-14T21:08:41.828Z,99996.34
2022-09-14T21:11:45.704Z,100000.38
2022-09-14T21:14:48.436Z,100003.19
2022-09-14T21:17:50.914Z,100002.41
2022-09-14T21:20:54.733Z,100003.31
2022-09-14T21:23:59.109Z,100005.31
2022-09-14T21:27:01.592Z,100004.28
2022-09-14T21:30:04.582Z,100006.75
2022-09-14T21:33:07.073Z,100009.09
2022-09-14T21:36:15.441Z,100003.16
2022-09-14T21:39:21.345Z,100000.81
2022-09-14T21:42:24.198Z,99994.72
2022-09-14T21:45:26.766Z,99990.28
2022-09-14T21:48:29.303Z,99984.47
2022-09-14T21:51:35.652Z,99980.22
2022-09-14T21:54:38.146Z,99981.16
2022-09-14T21:57:40.678Z,99973.91
2022-09-14T22:00:43.169Z,99976.78
2022-09-14T22:03:46.769Z,99971.66
2022-09-14T22:06:51.294Z,99967.69
2022-09-14T22:09:53.839Z,99969.00
2022-09-14T22:12:56.472Z,99965.47
2022-09-14T22:15:59.369Z,99962.34
2022-09-14T22:19:04.692Z,99974.31
2022-09-14T22:22:08.522Z,99964.94
2022-09-14T22:25:11.014Z,99956.19
2022-09-14T22:28:13.576Z,99954.72
2022-09-14T22:31:16.905Z,99961.75
2022-09-14T22:34:21.116Z,99960.38
2022-09-14T22:37:25.076Z,99955.72
2022-09-14T22:40:27.594Z,99956.88
2022-09-14T22:43:30.695Z,99957.72
2022-09-14T22:46:33.891Z,99958.38
2022-09-14T22:49:36.478Z,99955.19
2022-09-14T22:52:40.487Z,99948.41
2022-09-14T22:55:44.698Z,99943.31
2022-09-14T22:58:48.040Z,99942.91
2022-09-14T23:01:50.670Z,99946.84
2022-09-14T23:04:53.234Z,99941.09
2022-09-14T23:07:57.346Z,99944.16
2022-09-14T23:11:04.158Z,99938.75
2022-09-14T23:14:06.716Z,99940.00
2022-09-14T23:17:09.238Z,99935.19
2022-09-14T23:20:12.427Z,99945.66
2022-09-14T23:23:16.225Z,99942.13
2022-09-14T23:26:18.763Z,99923.22
2022-09-14T23:29:21.243Z,99926.69
2022-09-14T23:32:23.762Z,99914.94
2022-09-14T23:35:27.023Z,99934.81
2022-09-14T23:38:30.881Z,99925.25
2022-09-14T23:41:33.397Z,99917.91
2022-09-14T23:44:36.260Z,99925.88
2022-09-14T23:47:39.447Z,99918.53
2022-09-14T23:50:41.917Z,99914.41
2022-09-14T23:53:45.946Z,99902.25
2022-09-14T23:56:48.482Z,99909.22
2022-09-14T23:59:50.969Z,99911.88
